Dane County Regional Truax Field


Codes: KMSN/MSN
Name: Dane County Regional Truax Field
City: Madison
Country: United States
Elevation: 887 ft.
Wikipedia:

Photos at Dane County Regional Truax Field


   Photos courtesy of SpottingLog. You can add your own sightings and photos by signing up for a free trial today.



No photos found.

Weather at Dane County Regional Truax Field


Time (UTC)DescriptionTempratureWindCloud coverageVisibilityPressureHumidity
17-Jun-2024 06:00Clear Sky23°C11 mph, SW0%10000m1010hPa84%
17-Jun-2024 09:00Light Rain23°C9 mph, SW1%10000m1010hPa88%
17-Jun-2024 12:00Light Rain23°C11 mph, SW27%10000m1011hPa90%
17-Jun-2024 15:00Light Rain26°C16 mph, SW100%6289m1011hPa84%
17-Jun-2024 18:00Light Rain29°C16 mph, SW92%10000m1012hPa71%
17-Jun-2024 21:00Light Rain26°C13 mph, SW92%7174m1011hPa79%
18-Jun-2024 00:00Light Rain25°C11 mph, S96%10000m1010hPa86%
18-Jun-2024 03:00Overcast Clouds25°C18 mph, S100%10000m1011hPa83%
18-Jun-2024 06:00Broken Clouds23°C13 mph, S83%10000m1012hPa87%
18-Jun-2024 09:00Scattered Clouds22°C13 mph, S35%10000m1012hPa97%
18-Jun-2024 12:00Scattered Clouds22°C16 mph, S49%10000m1012hPa94%
18-Jun-2024 15:00Scattered Clouds26°C20 mph, S47%10000m1013hPa82%
18-Jun-2024 18:00Scattered Clouds29°C20 mph, S50%10000m1012hPa72%
18-Jun-2024 21:00Light Rain29°C20 mph, S9%10000m1012hPa75%
19-Jun-2024 00:00Clear Sky26°C20 mph, S4%10000m1012hPa80%
19-Jun-2024 03:00Clear Sky25°C18 mph, S5%10000m1014hPa82%
19-Jun-2024 06:00Light Rain23°C18 mph, S3%10000m1016hPa86%
19-Jun-2024 09:00Light Rain21°C16 mph, SW23%10000m1017hPa92%
19-Jun-2024 12:00Light Rain21°C11 mph, SW46%10000m1020hPa94%
19-Jun-2024 15:00Light Rain24°C11 mph, SW100%10000m1021hPa79%
19-Jun-2024 18:00Light Rain25°C11 mph, NW95%10000m1022hPa80%
19-Jun-2024 21:00Light Rain24°C9 mph, NW100%10000m1022hPa81%
20-Jun-2024 00:00Light Rain20°C7 mph, N100%10000m1024hPa94%
20-Jun-2024 03:00Moderate Rain19°C4 mph, NE100%3660m1025hPa98%
20-Jun-2024 06:00Moderate Rain19°C4 mph, E100%10000m1025hPa97%
20-Jun-2024 09:00Overcast Clouds19°C4 mph, NE100%10000m1026hPa98%
20-Jun-2024 12:00Overcast Clouds20°C4 mph, E100%10000m1027hPa98%
20-Jun-2024 15:00Overcast Clouds21°C9 mph, E100%10000m1027hPa95%
20-Jun-2024 18:00Light Rain23°C9 mph, SE100%10000m1026hPa86%
20-Jun-2024 21:00Light Rain26°C7 mph, SE100%10000m1024hPa77%
21-Jun-2024 00:00Moderate Rain24°C4 mph, SE100%1863m1023hPa87%
21-Jun-2024 03:00Moderate Rain22°C7 mph, E100%10000m1024hPa94%
21-Jun-2024 06:00Overcast Clouds20°C7 mph, SE100%10000m1024hPa98%
21-Jun-2024 09:00Overcast Clouds20°C7 mph, S100%10000m1023hPa98%
21-Jun-2024 12:00Overcast Clouds21°C4 mph, S90%10000m1023hPa95%
21-Jun-2024 15:00Light Rain26°C9 mph, SW12%10000m1022hPa81%
21-Jun-2024 18:00Light Rain29°C9 mph, SW6%10000m1020hPa65%
21-Jun-2024 21:00Light Rain28°C11 mph, SW40%10000m1019hPa69%
22-Jun-2024 00:00Light Rain26°C9 mph, SW26%10000m1018hPa83%
22-Jun-2024 03:00Light Rain22°C9 mph, SW7%10000m1017hPa90%